createdAt,value
2022-12-29T00:00:55.846Z,0.00
2022-12-29T00:01:55.833Z,0.00
2022-12-29T00:02:55.877Z,0.00
2022-12-29T00:03:55.804Z,0.00
2022-12-29T00:04:55.758Z,0.00
2022-12-29T00:05:55.774Z,0.00
2022-12-29T00:06:55.734Z,0.00
2022-12-29T00:07:55.724Z,0.00
2022-12-29T00:08:55.715Z,0.00
2022-12-29T00:09:55.708Z,0.00
2022-12-29T00:10:55.697Z,0.00
2022-12-29T00:11:55.681Z,0.00
2022-12-29T00:12:55.681Z,0.00
2022-12-29T00:13:55.662Z,0.00
2022-12-29T00:14:55.695Z,0.00
2022-12-29T00:15:55.691Z,0.00
2022-12-29T00:16:55.636Z,0.00
2022-12-29T00:17:55.608Z,0.00
2022-12-29T00:18:55.605Z,0.00
2022-12-29T00:19:55.596Z,0.00
2022-12-29T00:20:55.563Z,0.00
2022-12-29T00:21:55.617Z,0.00
2022-12-29T00:22:55.562Z,0.00
2022-12-29T00:23:55.536Z,0.00
2022-12-29T00:24:55.545Z,0.00
2022-12-29T00:25:55.506Z,0.00
2022-12-29T00:26:55.527Z,0.00
2022-12-29T00:27:55.501Z,0.00
2022-12-29T00:28:55.481Z,0.00
2022-12-29T00:29:55.470Z,0.00
2022-12-29T00:30:55.523Z,0.00
2022-12-29T00:31:55.471Z,0.00
2022-12-29T00:32:55.436Z,0.00
2022-12-29T00:33:55.424Z,0.00
2022-12-29T00:34:55.437Z,0.00
2022-12-29T00:35:55.401Z,0.00
2022-12-29T00:36:55.415Z,0.00
2022-12-29T00:37:55.390Z,0.00
2022-12-29T00:38:55.381Z,0.00
2022-12-29T00:39:55.345Z,0.00
2022-12-29T00:40:55.382Z,0.00
2022-12-29T00:41:55.334Z,0.00
2022-12-29T00:42:55.339Z,0.00
2022-12-29T00:43:55.332Z,0.00
2022-12-29T00:44:55.324Z,0.00
2022-12-29T00:45:55.300Z,0.00
2022-12-29T00:46:55.325Z,0.00
2022-12-29T00:47:55.257Z,0.00
2022-12-29T00:48:55.269Z,0.00
2022-12-29T00:49:55.279Z,0.00
2022-12-29T00:50:55.229Z,0.00
2022-12-29T00:51:55.232Z,0.00
2022-12-29T00:52:55.246Z,0.00
2022-12-29T00:53:55.192Z,0.00
2022-12-29T00:54:55.196Z,0.00
2022-12-29T00:55:55.171Z,0.00
2022-12-29T00:56:55.180Z,0.00
2022-12-29T00:57:55.152Z,0.00
2022-12-29T00:58:55.141Z,0.00
2022-12-29T00:59:55.162Z,0.00
2022-12-29T01:00:55.136Z,0.00
2022-12-29T01:01:55.276Z,0.00
2022-12-29T01:02:55.157Z,0.00
2022-12-29T01:04:00.115Z,0.00
2022-12-29T01:04:56.092Z,0.00
2022-12-29T01:05:55.062Z,0.00
2022-12-29T01:06:55.062Z,0.00
2022-12-29T01:07:55.039Z,0.00
2022-12-29T01:09:02.253Z,0.00
2022-12-29T01:10:03.283Z,0.00
2022-12-29T01:11:02.246Z,0.00
2022-12-29T01:12:02.242Z,0.00
2022-12-29T01:13:03.571Z,0.00
2022-12-29T01:13:54.985Z,0.00
2022-12-29T01:14:54.968Z,0.00
2022-12-29T01:15:54.996Z,0.00
2022-12-29T01:16:54.953Z,0.00
2022-12-29T01:17:54.958Z,0.00
2022-12-29T01:18:54.922Z,0.00
2022-12-29T01:19:54.902Z,0.00
2022-12-29T01:20:54.889Z,0.00
2022-12-29T01:21:54.913Z,0.00
2022-12-29T01:22:54.863Z,0.00
2022-12-29T01:23:54.854Z,0.00
2022-12-29T01:24:54.845Z,0.00
2022-12-29T01:25:54.836Z,0.00
2022-12-29T01:26:54.987Z,0.00
2022-12-29T01:27:54.809Z,0.00
2022-12-29T01:28:54.794Z,0.00
2022-12-29T01:29:54.794Z,0.00
2022-12-29T01:30:54.775Z,0.00
2022-12-29T01:31:54.827Z,0.00
2022-12-29T01:32:54.743Z,0.00
2022-12-29T01:33:54.744Z,0.00
2022-12-29T01:34:54.745Z,0.00
2022-12-29T01:35:54.726Z,0.00
2022-12-29T01:36:54.738Z,0.00
2022-12-29T01:37:54.704Z,0.00
2022-12-29T01:38:54.697Z,0.00
2022-12-29T01:39:54.695Z,0.00
2022-12-29T01:40:54.666Z,0.00
2022-12-29T01:41:54.667Z,0.00
2022-12-29T01:42:54.646Z,0.00
2022-12-29T01:43:54.638Z,0.00
2022-12-29T01:44:54.641Z,0.00
2022-12-29T01:45:54.690Z,0.00
2022-12-29T01:46:54.592Z,0.00
2022-12-29T01:47:54.584Z,0.00
2022-12-29T01:48:54.582Z,0.00
2022-12-29T01:49:54.568Z,0.00
2022-12-29T01:50:54.540Z,0.00
2022-12-29T01:51:54.587Z,0.00
2022-12-29T01:52:54.529Z,0.00
2022-12-29T01:53:54.517Z,0.00
2022-12-29T01:54:54.499Z,0.00
2022-12-29T01:55:54.531Z,0.00
2022-12-29T01:56:54.508Z,0.00
2022-12-29T01:57:54.487Z,0.00
2022-12-29T01:58:54.458Z,0.00
2022-12-29T01:59:54.466Z,0.00
2022-12-29T02:00:54.501Z,0.00
2022-12-29T02:01:54.558Z,0.00
2022-12-29T02:02:54.530Z,0.00
2022-12-29T02:03:54.400Z,0.00
2022-12-29T02:04:54.398Z,0.00
2022-12-29T02:05:54.399Z,0.00
2022-12-29T02:06:54.391Z,0.00
2022-12-29T02:07:54.367Z,0.00
2022-12-29T02:08:54.344Z,0.00
2022-12-29T02:09:54.354Z,0.00
2022-12-29T02:10:54.334Z,0.00
2022-12-29T02:11:54.319Z,0.00
2022-12-29T02:12:54.379Z,0.00
2022-12-29T02:13:54.309Z,0.00
2022-12-29T02:14:54.295Z,0.00
2022-12-29T02:15:54.301Z,0.00
2022-12-29T02:16:54.329Z,0.00
2022-12-29T02:17:54.256Z,0.00
2022-12-29T02:18:54.224Z,0.00
2022-12-29T02:19:54.233Z,0.00
2022-12-29T02:20:54.274Z,0.00
2022-12-29T02:21:54.204Z,0.00
2022-12-29T02:22:54.193Z,0.00
2022-12-29T02:23:54.185Z,0.00
2022-12-29T02:24:54.179Z,0.00
2022-12-29T02:25:54.164Z,0.00
2022-12-29T02:26:54.159Z,0.00
2022-12-29T02:27:54.143Z,0.00
2022-12-29T02:28:54.121Z,0.00
2022-12-29T02:29:54.113Z,0.00
2022-12-29T02:30:54.132Z,0.00
2022-12-29T02:31:54.406Z,0.00
2022-12-29T02:32:54.072Z,0.00
2022-12-29T02:33:54.075Z,0.00
2022-12-29T02:34:54.077Z,0.00
2022-12-29T02:35:54.056Z,0.00
2022-12-29T02:36:54.043Z,0.00
2022-12-29T02:37:54.020Z,0.00
2022-12-29T02:38:54.020Z,0.00
2022-12-29T02:39:53.993Z,0.00
2022-12-29T02:40:54.064Z,0.00
2022-12-29T02:41:53.973Z,0.00
2022-12-29T02:42:53.966Z,0.00
2022-12-29T02:43:53.958Z,0.00
2022-12-29T02:44:53.976Z,0.00
2022-12-29T02:45:53.977Z,0.00
2022-12-29T02:46:53.935Z,0.00
2022-12-29T02:47:53.923Z,0.00
2022-12-29T02:48:53.904Z,0.00
2022-12-29T02:49:53.876Z,0.00
2022-12-29T02:50:53.929Z,0.00
2022-12-29T02:51:53.898Z,0.00
2022-12-29T02:52:53.853Z,0.00
2022-12-29T02:53:53.845Z,0.00
2022-12-29T02:54:53.841Z,0.00
2022-12-29T02:55:53.834Z,0.00
2022-12-29T02:56:53.813Z,0.00
2022-12-29T02:57:53.800Z,0.00
2022-12-29T02:58:53.822Z,0.00
2022-12-29T02:59:53.769Z,0.00
2022-12-29T03:00:53.791Z,0.00
2022-12-29T03:01:53.861Z,0.00
2022-12-29T03:02:53.939Z,0.00
2022-12-29T03:03:53.725Z,0.00
2022-12-29T03:04:53.722Z,0.00
2022-12-29T03:05:53.740Z,0.00
2022-12-29T03:06:53.697Z,0.00
2022-12-29T03:07:53.712Z,0.00
2022-12-29T03:08:53.686Z,0.00
2022-12-29T03:09:53.687Z,0.00
2022-12-29T03:10:53.649Z,0.00
2022-12-29T03:11:53.675Z,0.00
2022-12-29T03:12:53.609Z,0.00
2022-12-29T03:13:53.609Z,0.00
2022-12-29T03:14:53.611Z,0.00
2022-12-29T03:15:53.578Z,0.00
2022-12-29T03:17:00.859Z,0.00
2022-12-29T03:17:53.583Z,0.00
2022-12-29T03:18:53.540Z,0.00
2022-12-29T03:19:53.545Z,0.00
2022-12-29T03:20:53.550Z,0.00
2022-12-29T03:21:53.531Z,0.00
2022-12-29T03:22:53.500Z,0.00
2022-12-29T03:23:53.519Z,0.00
2022-12-29T03:24:53.538Z,0.00
2022-12-29T03:25:53.472Z,0.00
2022-12-29T03:26:53.479Z,0.00
2022-12-29T03:27:53.521Z,0.00
2022-12-29T03:28:53.446Z,0.00
2022-12-29T03:29:53.446Z,0.00
2022-12-29T03:30:53.459Z,0.00
2022-12-29T03:31:53.430Z,0.00
2022-12-29T03:32:53.384Z,0.00
2022-12-29T03:33:53.412Z,0.00
2022-12-29T03:34:53.382Z,0.00
2022-12-29T03:35:53.379Z,0.00
2022-12-29T03:36:53.387Z,0.00
2022-12-29T03:37:53.347Z,0.00
2022-12-29T03:38:53.337Z,0.00
2022-12-29T03:39:53.332Z,0.00
2022-12-29T03:40:53.325Z,0.00
2022-12-29T03:41:53.302Z,0.00
2022-12-29T03:42:53.273Z,0.00
2022-12-29T03:43:53.278Z,0.00
2022-12-29T03:44:53.265Z,0.00
2022-12-29T03:45:53.591Z,0.00
2022-12-29T03:46:53.253Z,0.00
2022-12-29T03:47:53.238Z,0.00
2022-12-29T03:48:53.228Z,0.00
2022-12-29T03:49:53.195Z,0.00
2022-12-29T03:50:53.196Z,0.00
2022-12-29T03:51:53.257Z,0.00
2022-12-29T03:52:53.163Z,0.00
2022-12-29T03:53:53.177Z,0.00
2022-12-29T03:54:53.152Z,0.00
2022-12-29T03:55:53.144Z,0.00
2022-12-29T03:56:53.124Z,0.00
2022-12-29T03:57:53.162Z,0.00
2022-12-29T03:58:53.104Z,0.00
2022-12-29T03:59:53.096Z,0.00
2022-12-29T04:00:53.110Z,0.00
2022-12-29T04:01:53.209Z,0.00
2022-12-29T04:02:53.253Z,0.00
2022-12-29T04:03:53.056Z,0.00
2022-12-29T04:04:53.047Z,0.00
2022-12-29T04:05:53.037Z,0.00
2022-12-29T04:06:53.006Z,0.00
2022-12-29T04:07:53.029Z,0.00
2022-12-29T04:08:53.013Z,0.00
2022-12-29T04:09:52.987Z,0.00
2022-12-29T04:10:52.961Z,0.00
2022-12-29T04:11:52.991Z,0.00
2022-12-29T04:12:52.946Z,0.00
2022-12-29T04:13:52.934Z,0.00
2022-12-29T04:14:52.927Z,0.00
2022-12-29T04:15:53.006Z,0.00
2022-12-29T04:16:52.918Z,0.00
2022-12-29T04:17:52.878Z,0.00
2022-12-29T04:18:52.886Z,0.00
2022-12-29T04:19:52.858Z,0.00
2022-12-29T04:20:52.852Z,0.00
2022-12-29T04:21:52.930Z,0.00
2022-12-29T04:22:52.878Z,0.00
2022-12-29T04:23:52.808Z,0.00
2022-12-29T04:24:52.814Z,0.00
2022-12-29T04:25:52.837Z,0.00
2022-12-29T04:26:52.789Z,0.00
2022-12-29T04:27:52.760Z,0.00
2022-12-29T04:28:52.769Z,0.00
2022-12-29T04:29:52.780Z,0.00
2022-12-29T04:30:52.782Z,0.00
2022-12-29T04:31:52.731Z,0.00
2022-12-29T04:32:52.728Z,0.00
2022-12-29T04:33:52.727Z,0.00
2022-12-29T04:34:52.692Z,0.00
2022-12-29T04:35:52.702Z,0.00
2022-12-29T04:36:52.690Z,0.00
2022-12-29T04:37:52.684Z,0.00
2022-12-29T04:38:52.662Z,0.00
2022-12-29T04:39:52.651Z,0.00
2022-12-29T04:40:52.633Z,0.00
2022-12-29T04:41:52.633Z,0.00
2022-12-29T04:42:52.626Z,0.00
2022-12-29T04:43:52.614Z,0.00
2022-12-29T04:44:52.572Z,0.00
2022-12-29T04:45:52.584Z,0.00
2022-12-29T04:46:52.631Z,0.00
2022-12-29T04:47:52.580Z,0.00
2022-12-29T04:48:52.538Z,0.00
2022-12-29T04:49:52.548Z,0.00
2022-12-29T04:50:52.512Z,0.00
2022-12-29T04:51:52.496Z,0.00
2022-12-29T04:52:52.522Z,0.00
2022-12-29T04:53:52.481Z,0.00
2022-12-29T04:54:52.464Z,0.00
2022-12-29T04:55:52.480Z,0.00
2022-12-29T04:56:52.462Z,0.00
2022-12-29T04:57:52.482Z,0.00
2022-12-29T04:58:52.420Z,0.00
2022-12-29T04:59:52.435Z,0.00
2022-12-29T05:00:52.401Z,0.00
2022-12-29T05:01:52.454Z,0.00
2022-12-29T05:02:52.555Z,0.00
2022-12-29T05:03:52.493Z,0.00
2022-12-29T05:04:52.352Z,0.00
2022-12-29T05:05:52.355Z,0.00
2022-12-29T05:06:52.333Z,0.00
2022-12-29T05:07:52.360Z,0.00
2022-12-29T05:08:52.307Z,0.00
2022-12-29T05:09:52.332Z,0.00
2022-12-29T05:10:52.295Z,0.00
2022-12-29T05:11:52.265Z,0.00
2022-12-29T05:12:52.270Z,0.00
2022-12-29T05:13:52.254Z,0.00
2022-12-29T05:14:52.237Z,0.00
2022-12-29T05:15:52.331Z,0.00
2022-12-29T05:16:52.265Z,0.00
2022-12-29T05:17:52.231Z,0.00
2022-12-29T05:18:52.271Z,0.00
2022-12-29T05:19:52.193Z,0.00
2022-12-29T05:20:52.173Z,0.00
2022-12-29T05:21:52.147Z,0.00
2022-12-29T05:22:52.154Z,0.00
2022-12-29T05:23:52.136Z,0.00
2022-12-29T05:24:59.363Z,0.00
2022-12-29T05:25:52.093Z,0.00
2022-12-29T05:26:59.352Z,0.00
2022-12-29T05:27:59.367Z,0.00
2022-12-29T05:28:52.106Z,0.00
2022-12-29T05:29:52.058Z,0.00
2022-12-29T05:30:52.054Z,0.00
2022-12-29T05:31:52.204Z,0.00
2022-12-29T05:32:52.060Z,0.00
2022-12-29T05:33:52.099Z,0.00
2022-12-29T05:34:52.015Z,0.00
2022-12-29T05:35:51.996Z,0.00
2022-12-29T05:36:51.995Z,0.00
2022-12-29T05:37:52.147Z,0.00
2022-12-29T05:38:52.049Z,0.00
2022-12-29T05:39:51.940Z,0.00
2022-12-29T05:40:52.000Z,0.00
2022-12-29T05:41:51.958Z,0.00
2022-12-29T05:42:51.909Z,0.00
2022-12-29T05:43:51.889Z,0.00
2022-12-29T05:44:51.907Z,0.00
2022-12-29T05:45:51.951Z,0.00
2022-12-29T05:46:51.924Z,0.00
2022-12-29T05:47:51.912Z,0.00
2022-12-29T05:48:52.173Z,0.00
2022-12-29T05:49:51.860Z,0.00
2022-12-29T05:50:51.819Z,0.00
2022-12-29T05:51:51.822Z,0.00
2022-12-29T05:52:51.822Z,0.00
2022-12-29T05:53:51.821Z,0.00
2022-12-29T05:54:51.779Z,0.00
2022-12-29T05:55:51.752Z,0.00
2022-12-29T05:56:51.786Z,0.00
2022-12-29T05:57:51.768Z,0.00
2022-12-29T05:58:51.722Z,0.00
2022-12-29T05:59:51.816Z,0.00
2022-12-29T06:00:51.710Z,0.00
2022-12-29T06:01:51.955Z,0.00
2022-12-29T06:02:51.865Z,0.00
2022-12-29T06:03:51.786Z,0.00
2022-12-29T06:04:51.670Z,0.00
2022-12-29T06:05:51.641Z,0.00
2022-12-29T06:06:51.641Z,0.00
2022-12-29T06:07:51.619Z,0.00
2022-12-29T06:08:51.616Z,0.00
2022-12-29T06:09:51.612Z,0.00
2022-12-29T06:10:51.840Z,0.00
2022-12-29T06:11:51.747Z,0.00
2022-12-29T06:12:51.664Z,0.00
2022-12-29T06:13:51.566Z,0.00
2022-12-29T06:14:51.535Z,0.00
2022-12-29T06:15:51.523Z,0.00
2022-12-29T06:16:51.629Z,0.00
2022-12-29T06:17:51.518Z,0.00
2022-12-29T06:18:51.503Z,0.00
2022-12-29T06:19:51.502Z,0.00
2022-12-29T06:20:51.517Z,0.00
2022-12-29T06:21:51.515Z,0.00
2022-12-29T06:22:51.443Z,0.00
2022-12-29T06:23:51.465Z,0.00
2022-12-29T06:24:51.471Z,0.00
2022-12-29T06:25:51.429Z,0.00
2022-12-29T06:26:51.685Z,0.00
2022-12-29T06:27:51.396Z,0.00
2022-12-29T06:28:51.404Z,0.00
2022-12-29T06:29:51.362Z,0.00
2022-12-29T06:30:51.382Z,0.00
2022-12-29T06:31:51.397Z,0.00
2022-12-29T06:32:51.339Z,0.00
2022-12-29T06:33:51.325Z,0.00
2022-12-29T06:34:51.338Z,0.00
2022-12-29T06:35:51.301Z,0.00
2022-12-29T06:36:51.306Z,0.00
2022-12-29T06:37:51.329Z,0.00
2022-12-29T06:38:51.256Z,0.00
2022-12-29T06:39:51.267Z,0.00
2022-12-29T06:40:52.277Z,0.00
2022-12-29T06:41:51.264Z,0.00
2022-12-29T06:42:51.242Z,0.00
2022-12-29T06:43:51.227Z,0.00
2022-12-29T06:44:51.238Z,0.00
2022-12-29T06:45:51.288Z,0.00
2022-12-29T06:46:51.215Z,0.00
2022-12-29T06:47:51.338Z,0.00
2022-12-29T06:48:51.166Z,0.00
2022-12-29T06:49:51.130Z,0.00
2022-12-29T06:50:51.134Z,0.00
2022-12-29T06:51:51.158Z,0.00
2022-12-29T06:52:51.216Z,0.00
2022-12-29T06:53:51.085Z,0.00
2022-12-29T06:54:51.100Z,0.00
2022-12-29T06:55:51.061Z,0.00
2022-12-29T06:56:51.060Z,0.00
2022-12-29T06:57:51.059Z,0.00
2022-12-29T06:58:51.089Z,0.00
2022-12-29T06:59:51.028Z,0.00
2022-12-29T07:00:51.092Z,0.00
2022-12-29T07:01:51.057Z,0.00
2022-12-29T07:02:51.055Z,0.00
2022-12-29T07:03:50.969Z,0.00
2022-12-29T07:04:50.949Z,0.00
2022-12-29T07:05:50.956Z,0.00
2022-12-29T07:06:50.953Z,0.00
2022-12-29T07:07:50.924Z,0.00
2022-12-29T07:08:50.909Z,0.00
2022-12-29T07:09:51.172Z,0.00
2022-12-29T07:10:50.879Z,0.00
2022-12-29T07:11:50.911Z,0.00
2022-12-29T07:12:50.883Z,0.00
2022-12-29T07:13:50.857Z,0.00
2022-12-29T07:14:50.877Z,0.00
2022-12-29T07:15:50.845Z,0.00
2022-12-29T07:16:50.962Z,0.00
2022-12-29T07:17:50.810Z,0.00
2022-12-29T07:18:51.112Z,0.00
2022-12-29T07:19:50.786Z,0.00
2022-12-29T07:20:50.793Z,0.00
2022-12-29T07:21:50.789Z,0.00
2022-12-29T07:22:50.753Z,0.00
2022-12-29T07:23:50.766Z,0.00
2022-12-29T07:24:50.726Z,0.00
2022-12-29T07:25:50.794Z,0.00
2022-12-29T07:26:50.708Z,0.00
2022-12-29T07:27:50.692Z,0.00
2022-12-29T07:28:50.695Z,0.00
2022-12-29T07:29:50.653Z,0.00
2022-12-29T07:30:50.693Z,0.00
2022-12-29T07:31:50.706Z,0.00
2022-12-29T07:32:50.627Z,0.00
2022-12-29T07:33:50.638Z,0.00
2022-12-29T07:34:50.631Z,0.00
2022-12-29T07:35:50.695Z,0.00
2022-12-29T07:36:50.586Z,0.00
2022-12-29T07:37:50.576Z,0.00
2022-12-29T07:38:50.587Z,0.00
2022-12-29T07:39:50.564Z,5.62
2022-12-29T07:40:50.563Z,5.62
2022-12-29T07:41:50.503Z,5.62
2022-12-29T07:42:50.536Z,5.62
2022-12-29T07:43:50.496Z,5.62
2022-12-29T07:44:50.510Z,5.62
2022-12-29T07:45:50.519Z,5.62
2022-12-29T07:46:55.075Z,5.62
2022-12-29T07:47:51.443Z,11.25
2022-12-29T07:48:50.490Z,11.25
2022-12-29T07:49:50.449Z,11.25
2022-12-29T07:50:50.431Z,11.25
2022-12-29T07:51:50.432Z,11.25
2022-12-29T07:52:50.451Z,11.25
2022-12-29T07:53:50.397Z,11.25
2022-12-29T07:54:50.387Z,16.88
2022-12-29T07:55:50.359Z,16.88
2022-12-29T07:56:50.365Z,16.88
2022-12-29T07:57:50.334Z,16.88
2022-12-29T07:58:50.308Z,22.50
2022-12-29T07:59:50.326Z,22.50
2022-12-29T08:00:50.294Z,22.50
2022-12-29T08:01:50.390Z,28.12
2022-12-29T08:02:50.268Z,28.12
2022-12-29T08:03:55.434Z,28.12
2022-12-29T08:04:51.263Z,33.75
2022-12-29T08:05:50.262Z,33.75
2022-12-29T08:06:50.242Z,33.75
2022-12-29T08:07:50.226Z,33.75
2022-12-29T08:08:50.199Z,39.38
2022-12-29T08:09:50.238Z,39.38
2022-12-29T08:10:50.201Z,45.00
2022-12-29T08:11:50.191Z,45.00
2022-12-29T08:12:50.198Z,50.62
2022-12-29T08:13:50.148Z,50.62
2022-12-29T08:14:50.149Z,50.62
2022-12-29T08:15:50.174Z,50.62
2022-12-29T08:16:50.118Z,50.62
2022-12-29T08:17:50.086Z,45.00
2022-12-29T08:18:50.108Z,45.00
2022-12-29T08:19:50.084Z,45.00
2022-12-29T08:20:55.552Z,39.38
2022-12-29T08:21:51.054Z,39.38
2022-12-29T08:22:50.032Z,33.75
2022-12-29T08:23:50.031Z,39.38
2022-12-29T08:24:50.032Z,39.38
2022-12-29T08:25:50.008Z,39.38
2022-12-29T08:26:50.031Z,50.62
2022-12-29T08:27:49.971Z,67.50
2022-12-29T08:28:49.969Z,78.75
2022-12-29T08:29:50.031Z,84.38
2022-12-29T08:30:50.001Z,84.38
2022-12-29T08:31:49.940Z,90.00
2022-12-29T08:32:49.921Z,95.62
2022-12-29T08:33:49.914Z,95.62
2022-12-29T08:34:49.930Z,101.25
2022-12-29T08:35:49.890Z,101.25
2022-12-29T08:36:49.878Z,101.25
2022-12-29T08:37:49.870Z,101.25
2022-12-29T08:38:49.855Z,101.25
2022-12-29T08:39:49.827Z,101.25
2022-12-29T08:40:49.852Z,101.25
2022-12-29T08:41:49.832Z,106.88
2022-12-29T08:42:49.829Z,106.88
2022-12-29T08:43:49.783Z,106.88
2022-12-29T08:44:49.798Z,106.88
2022-12-29T08:45:49.800Z,106.88
2022-12-29T08:46:49.846Z,106.88
2022-12-29T08:47:49.756Z,106.88
2022-12-29T08:48:49.730Z,112.50
2022-12-29T08:49:49.711Z,112.50
2022-12-29T08:50:49.723Z,112.50
2022-12-29T08:51:49.725Z,112.50
2022-12-29T08:52:49.681Z,112.50
2022-12-29T08:53:49.661Z,118.12
2022-12-29T08:54:49.707Z,118.12
2022-12-29T08:55:49.640Z,123.75
2022-12-29T08:56:49.657Z,123.75
2022-12-29T08:57:49.660Z,129.38
2022-12-29T08:58:49.612Z,129.38
2022-12-29T08:59:49.611Z,129.38
2022-12-29T09:00:49.613Z,123.75
2022-12-29T09:01:49.686Z,123.75
2022-12-29T09:02:49.708Z,118.12
2022-12-29T09:04:18.708Z,112.50
2022-12-29T09:04:50.571Z,112.50
2022-12-29T09:05:49.603Z,112.50
2022-12-29T09:06:49.505Z,106.88
2022-12-29T09:07:49.518Z,112.50
2022-12-29T09:08:49.508Z,112.50
2022-12-29T09:09:49.491Z,112.50
2022-12-29T09:10:49.473Z,112.50
2022-12-29T09:11:49.509Z,112.50
2022-12-29T09:12:49.454Z,112.50
2022-12-29T09:13:49.451Z,112.50
2022-12-29T09:14:49.461Z,112.50
2022-12-29T09:15:49.574Z,112.50
2022-12-29T09:16:49.446Z,112.50
2022-12-29T09:17:49.464Z,112.50
2022-12-29T09:18:49.372Z,112.50
2022-12-29T09:19:49.554Z,112.50
2022-12-29T09:20:49.887Z,112.50
2022-12-29T09:21:49.361Z,112.50
2022-12-29T09:22:49.354Z,112.50
2022-12-29T09:23:49.366Z,118.12
2022-12-29T09:24:49.325Z,123.75
2022-12-29T09:25:49.323Z,118.12
2022-12-29T09:26:49.304Z,123.75
2022-12-29T09:27:49.259Z,123.75
2022-12-29T09:28:49.311Z,118.12
2022-12-29T09:29:49.270Z,123.75
2022-12-29T09:30:49.237Z,123.75
2022-12-29T09:31:49.263Z,123.75
2022-12-29T09:32:54.871Z,123.75
2022-12-29T09:33:50.210Z,123.75
2022-12-29T09:34:49.218Z,123.75
2022-12-29T09:35:49.196Z,129.38
2022-12-29T09:36:49.155Z,135.00
2022-12-29T09:37:49.147Z,140.62
2022-12-29T09:38:49.177Z,163.12
2022-12-29T09:39:54.066Z,174.38
2022-12-29T09:40:50.122Z,151.88
2022-12-29T09:41:49.098Z,157.50
2022-12-29T09:42:49.123Z,168.75
2022-12-29T09:43:49.096Z,157.50
2022-12-29T09:44:49.059Z,151.88
2022-12-29T09:45:49.082Z,140.62
2022-12-29T09:46:49.102Z,140.62
2022-12-29T09:47:49.032Z,140.62
2022-12-29T09:48:49.058Z,140.62
2022-12-29T09:49:49.048Z,146.25
2022-12-29T09:50:49.023Z,151.88
2022-12-29T09:51:48.998Z,151.88
2022-12-29T09:52:48.980Z,151.88
2022-12-29T09:53:48.959Z,151.88
2022-12-29T09:54:55.208Z,151.88
2022-12-29T09:55:49.953Z,157.50
2022-12-29T09:56:48.951Z,157.50
2022-12-29T09:57:48.935Z,191.25
2022-12-29T09:58:48.910Z,185.62
2022-12-29T09:59:48.901Z,174.38
2022-12-29T10:00:54.939Z,180.00
2022-12-29T10:01:50.815Z,196.88
2022-12-29T10:02:48.970Z,208.12
2022-12-29T10:03:48.884Z,180.00
2022-12-29T10:04:48.858Z,208.12
2022-12-29T10:05:48.859Z,180.00
2022-12-29T10:07:28.406Z,219.38
2022-12-29T10:07:49.852Z,191.25
2022-12-29T10:08:48.792Z,168.75
2022-12-29T10:09:48.826Z,208.12
2022-12-29T10:10:48.806Z,196.88
2022-12-29T10:11:48.779Z,202.50
2022-12-29T10:12:48.785Z,208.12
2022-12-29T10:13:48.765Z,219.38
2022-12-29T10:14:48.722Z,270.00
2022-12-29T10:15:48.770Z,253.12
2022-12-29T10:16:48.743Z,225.00
2022-12-29T10:17:48.694Z,241.88
2022-12-29T10:18:48.676Z,241.88
2022-12-29T10:19:48.672Z,236.25
2022-12-29T10:20:48.684Z,225.00
2022-12-29T10:21:48.672Z,253.12
2022-12-29T10:22:48.658Z,208.12
2022-12-29T10:23:48.635Z,241.88
2022-12-29T10:24:48.638Z,230.62
2022-12-29T10:25:48.626Z,196.88
2022-12-29T10:26:48.612Z,185.62
2022-12-29T10:27:48.575Z,202.50
2022-12-29T10:28:48.563Z,253.12
2022-12-29T10:29:48.555Z,247.50
2022-12-29T10:30:48.567Z,270.00
2022-12-29T10:31:48.628Z,264.38
2022-12-29T10:32:48.537Z,225.00
2022-12-29T10:33:48.516Z,191.25
2022-12-29T10:34:48.512Z,191.25
2022-12-29T10:35:48.520Z,191.25
2022-12-29T10:36:48.483Z,208.12
2022-12-29T10:37:48.504Z,236.25
2022-12-29T10:38:48.449Z,208.12
2022-12-29T10:39:48.448Z,225.00
2022-12-29T10:40:48.452Z,219.38
2022-12-29T10:41:48.455Z,202.50
2022-12-29T10:42:48.408Z,208.12
2022-12-29T10:43:48.404Z,191.25
2022-12-29T10:44:48.379Z,202.50
2022-12-29T10:45:48.455Z,196.88
2022-12-29T10:46:48.376Z,225.00
2022-12-29T10:47:48.372Z,213.75
2022-12-29T10:48:48.339Z,225.00
2022-12-29T10:49:48.396Z,202.50
2022-12-29T10:50:48.421Z,270.00
2022-12-29T10:51:48.308Z,258.75
2022-12-29T10:52:48.289Z,219.38
2022-12-29T10:53:48.290Z,275.62
2022-12-29T10:54:48.282Z,230.62
2022-12-29T10:55:48.269Z,292.50
2022-12-29T10:56:48.256Z,298.12
2022-12-29T10:57:48.264Z,303.75
2022-12-29T10:58:49.921Z,309.38
2022-12-29T10:59:48.208Z,298.12
2022-12-29T11:00:48.314Z,230.62
2022-12-29T11:01:48.373Z,258.75
2022-12-29T11:02:48.274Z,253.12
2022-12-29T11:03:48.170Z,236.25
2022-12-29T11:04:48.209Z,270.00
2022-12-29T11:05:48.164Z,270.00
2022-12-29T11:06:48.147Z,258.75
2022-12-29T11:07:48.153Z,292.50
2022-12-29T11:08:48.126Z,230.62
2022-12-29T11:09:48.096Z,225.00
2022-12-29T11:10:48.115Z,258.75
2022-12-29T11:11:48.110Z,236.25
2022-12-29T11:12:48.091Z,213.75
2022-12-29T11:13:48.114Z,219.38
2022-12-29T11:14:48.083Z,219.38
2022-12-29T11:15:48.079Z,219.38
2022-12-29T11:16:48.122Z,219.38
2022-12-29T11:17:48.050Z,225.00
2022-12-29T11:18:48.003Z,258.75
2022-12-29T11:19:48.003Z,236.25
2022-12-29T11:20:48.038Z,230.62
2022-12-29T11:21:48.323Z,247.50
2022-12-29T11:22:47.969Z,247.50
2022-12-29T11:23:47.989Z,258.75
2022-12-29T11:24:47.972Z,275.62
2022-12-29T11:25:47.927Z,298.12
2022-12-29T11:26:47.933Z,298.12
2022-12-29T11:27:47.969Z,258.75
2022-12-29T11:28:47.925Z,258.75
2022-12-29T11:29:47.890Z,258.75
2022-12-29T11:30:47.930Z,264.38
2022-12-29T11:31:47.948Z,270.00
2022-12-29T11:32:47.838Z,264.38
2022-12-29T11:33:47.854Z,264.38
2022-12-29T11:34:47.844Z,258.75
2022-12-29T11:35:47.827Z,241.88
2022-12-29T11:36:47.870Z,247.50
2022-12-29T11:37:47.837Z,258.75
2022-12-29T11:38:47.797Z,258.75
2022-12-29T11:39:47.763Z,241.88
2022-12-29T11:40:47.786Z,241.88
2022-12-29T11:41:48.452Z,247.50
2022-12-29T11:42:47.730Z,253.12
2022-12-29T11:43:47.735Z,281.25
2022-12-29T11:44:47.704Z,275.62
2022-12-29T11:45:47.791Z,275.62
2022-12-29T11:46:47.728Z,298.12
2022-12-29T11:47:47.725Z,270.00
2022-12-29T11:48:47.681Z,258.75
2022-12-29T11:49:47.806Z,275.62
2022-12-29T11:50:48.137Z,253.12
2022-12-29T11:51:48.220Z,275.62
2022-12-29T11:52:48.108Z,253.12
2022-12-29T11:53:47.813Z,219.38
2022-12-29T11:54:47.883Z,196.88
2022-12-29T11:55:48.356Z,202.50
2022-12-29T11:56:48.329Z,196.88
2022-12-29T11:57:48.350Z,202.50
2022-12-29T11:58:47.784Z,213.75
2022-12-29T11:59:47.747Z,208.12
2022-12-29T12:00:47.728Z,213.75
2022-12-29T12:01:48.807Z,208.12
2022-12-29T12:02:47.773Z,208.12
2022-12-29T12:03:47.658Z,213.75
2022-12-29T12:04:47.596Z,225.00
2022-12-29T12:05:47.511Z,225.00
2022-12-29T12:06:47.682Z,225.00
2022-12-29T12:07:47.714Z,219.38
2022-12-29T12:08:47.730Z,208.12
2022-12-29T12:09:47.693Z,208.12
2022-12-29T12:10:47.775Z,208.12
2022-12-29T12:11:47.792Z,196.88
2022-12-29T12:12:47.435Z,191.25
2022-12-29T12:13:47.755Z,185.62
2022-12-29T12:14:47.812Z,180.00
2022-12-29T12:15:51.253Z,174.38
2022-12-29T12:16:48.738Z,151.88
2022-12-29T12:17:47.384Z,129.38
2022-12-29T12:18:47.724Z,129.38
2022-12-29T12:19:47.816Z,129.38
2022-12-29T12:20:47.475Z,140.62
2022-12-29T12:21:47.725Z,157.50
2022-12-29T12:22:47.381Z,180.00
2022-12-29T12:23:47.714Z,185.62
2022-12-29T12:24:47.723Z,174.38
2022-12-29T12:25:47.513Z,168.75
2022-12-29T12:26:47.715Z,163.12
2022-12-29T12:27:47.427Z,151.88
2022-12-29T12:28:47.262Z,151.88
2022-12-29T12:29:47.715Z,157.50
2022-12-29T12:30:47.540Z,157.50
2022-12-29T12:31:47.719Z,157.50
2022-12-29T12:32:47.393Z,157.50
2022-12-29T12:33:47.477Z,151.88
2022-12-29T12:34:47.733Z,151.88
2022-12-29T12:35:47.354Z,151.88
2022-12-29T12:36:47.366Z,146.25
2022-12-29T12:37:47.727Z,129.38
2022-12-29T12:38:47.150Z,118.12
2022-12-29T12:39:47.711Z,106.88
2022-12-29T12:40:47.195Z,101.25
2022-12-29T12:41:47.141Z,106.88
2022-12-29T12:42:50.863Z,140.62
2022-12-29T12:43:47.165Z,140.62
2022-12-29T12:44:50.917Z,140.62
2022-12-29T12:45:47.705Z,146.25
2022-12-29T12:46:47.206Z,168.75
2022-12-29T12:47:47.199Z,202.50
2022-12-29T12:48:51.048Z,202.50
2022-12-29T12:49:47.321Z,185.62
2022-12-29T12:50:47.272Z,174.38
2022-12-29T12:51:48.148Z,174.38
2022-12-29T12:52:46.977Z,174.38
2022-12-29T12:53:47.697Z,151.88
2022-12-29T12:54:46.947Z,112.50
2022-12-29T12:55:46.937Z,90.00
2022-12-29T12:56:46.952Z,78.75
2022-12-29T12:57:46.959Z,78.75
2022-12-29T12:58:46.967Z,84.38
2022-12-29T12:59:47.033Z,101.25